createdAt,value
2023-02-25T00:00:13.699Z,96663.52
2023-02-25T00:06:47.693Z,96637.28
2023-02-25T00:10:03.896Z,96631.59
2023-02-25T00:13:19.971Z,96617.27
2023-02-25T00:16:37.021Z,96615.00
2023-02-25T00:23:09.144Z,96597.13
2023-02-25T00:26:26.405Z,96596.53
2023-02-25T00:29:43.080Z,96589.25
2023-02-25T00:38:15.683Z,96610.21
2023-02-25T00:41:31.038Z,96621.20
2023-02-25T00:44:48.892Z,96617.97
2023-02-25T00:53:35.629Z,96605.09
2023-02-25T00:56:52.134Z,96603.30
2023-02-25T01:00:11.177Z,96595.17
2023-02-25T01:03:27.703Z,96584.69
2023-02-25T01:06:45.917Z,96558.33
2023-02-25T01:10:04.887Z,96556.95
2023-02-25T01:13:21.593Z,96550.06
2023-02-25T01:16:39.950Z,96553.36
2023-02-25T01:23:13.160Z,96534.14
2023-02-25T01:26:29.302Z,96534.14
2023-02-25T01:29:47.641Z,96540.21
2023-02-25T01:37:56.163Z,96524.13
2023-02-25T01:41:13.031Z,96545.05
2023-02-25T01:44:35.239Z,96541.85
2023-02-25T01:47:54.262Z,96542.69
2023-02-25T01:54:28.721Z,96549.84
2023-02-25T01:57:45.352Z,96542.79
2023-02-25T02:01:02.152Z,96547.05
2023-02-25T02:04:21.575Z,96556.34
2023-02-25T02:07:37.686Z,96553.31
2023-02-25T02:10:53.768Z,96539.97
2023-02-25T02:14:13.718Z,96543.19
2023-02-25T02:17:35.301Z,96548.70
2023-02-25T02:21:00.414Z,96554.61
2023-02-25T02:25:07.795Z,96551.13
2023-02-25T02:28:54.183Z,96535.94
2023-02-25T02:32:21.513Z,96533.13
2023-02-25T02:35:45.015Z,96523.04
2023-02-25T02:39:05.554Z,96523.47
2023-02-25T02:42:30.561Z,96506.30
2023-02-25T02:45:52.882Z,96485.08
2023-02-25T02:52:29.191Z,96499.05
2023-02-25T02:55:51.201Z,96493.58
2023-02-25T02:59:12.191Z,96476.39
2023-02-25T03:02:33.679Z,96471.50
2023-02-25T03:09:10.221Z,96474.34
2023-02-25T03:12:27.260Z,96477.77
2023-02-25T03:15:46.032Z,96490.92
2023-02-25T03:19:07.347Z,96494.34
2023-02-25T03:22:28.610Z,96505.45
2023-02-25T03:25:51.668Z,96497.95
2023-02-25T03:29:09.223Z,96498.53
2023-02-25T03:32:30.347Z,96507.64
2023-02-25T03:35:48.168Z,96505.80
2023-02-25T03:39:10.742Z,96498.69
2023-02-25T03:42:32.310Z,96494.84
2023-02-25T03:45:51.170Z,96481.23
2023-02-25T03:52:26.012Z,96495.88
2023-02-25T03:55:45.918Z,96500.09
2023-02-25T03:59:02.101Z,96499.31
2023-02-25T04:02:20.266Z,96528.48
2023-02-25T04:05:38.469Z,96545.94
2023-02-25T04:08:54.769Z,96534.66
2023-02-25T04:12:11.848Z,96547.20
2023-02-25T04:15:29.657Z,96557.52
2023-02-25T04:19:47.175Z,96561.96
2023-02-25T04:23:03.626Z,96586.59
2023-02-25T04:26:19.744Z,96592.02
2023-02-25T04:29:35.760Z,96598.47
2023-02-25T04:32:52.074Z,96604.09
2023-02-25T04:36:08.246Z,96614.32
2023-02-25T04:39:25.799Z,96611.73
2023-02-25T04:42:41.873Z,96616.99
2023-02-25T04:45:58.049Z,96614.66
2023-02-25T04:52:29.728Z,96602.69
2023-02-25T04:55:46.943Z,96603.58
2023-02-25T04:59:04.725Z,96613.91
2023-02-25T05:02:20.924Z,96612.08
2023-02-25T05:08:52.405Z,96636.36
2023-02-25T05:12:09.304Z,96626.30
2023-02-25T05:15:26.208Z,96638.42
2023-02-25T05:18:44.504Z,96641.11
2023-02-25T05:25:18.690Z,96644.09
2023-02-25T05:28:34.984Z,96662.66
2023-02-25T05:31:52.460Z,96657.01
2023-02-25T05:35:09.654Z,96653.95
2023-02-25T05:38:26.760Z,96671.65
2023-02-25T05:41:43.224Z,96666.16
2023-02-25T05:44:59.363Z,96667.03
2023-02-25T05:48:16.048Z,96673.43
2023-02-25T05:51:32.612Z,96658.73
2023-02-25T05:54:49.126Z,96657.83
2023-02-25T05:58:05.303Z,96652.10
2023-02-25T06:01:25.174Z,96659.58
2023-02-25T06:04:41.205Z,96655.48
2023-02-25T06:07:57.367Z,96647.78
2023-02-25T06:11:16.031Z,96661.64
2023-02-25T06:14:32.324Z,96651.55
2023-02-25T06:17:48.520Z,96651.98
2023-02-25T06:21:10.574Z,96664.02
2023-02-25T06:24:29.333Z,96658.41
2023-02-25T06:27:45.677Z,96661.39
2023-02-25T06:31:02.002Z,96662.02
2023-02-25T06:34:19.364Z,96669.31
2023-02-25T06:37:37.062Z,96666.69
2023-02-25T06:40:53.457Z,96676.63
2023-02-25T06:44:09.574Z,96667.88
2023-02-25T06:47:27.252Z,96669.80
2023-02-25T06:53:59.175Z,96677.66
2023-02-25T06:57:15.317Z,96669.20
2023-02-25T07:00:32.870Z,96650.86
2023-02-25T07:03:49.771Z,96651.80
2023-02-25T07:10:22.710Z,96648.64
2023-02-25T07:13:39.139Z,96656.74
2023-02-25T07:17:00.105Z,96648.44
2023-02-25T07:20:20.704Z,96642.81
2023-02-25T07:23:37.021Z,96636.33
2023-02-25T07:26:53.484Z,96649.33
2023-02-25T07:30:10.065Z,96645.17
2023-02-25T07:33:29.038Z,96653.70
2023-02-25T07:36:46.180Z,96633.81
2023-02-25T07:40:03.470Z,96640.47
2023-02-25T07:43:19.945Z,96644.48
2023-02-25T07:46:37.529Z,96652.50
2023-02-25T07:49:54.147Z,96652.22
2023-02-25T07:53:10.305Z,96652.03
2023-02-25T07:56:28.293Z,96646.08
2023-02-25T07:59:44.580Z,96646.42
2023-02-25T08:03:01.522Z,96647.27
2023-02-25T08:06:21.918Z,96642.14
2023-02-25T08:09:38.645Z,96637.84
2023-02-25T08:12:55.081Z,96640.80
2023-02-25T08:16:15.326Z,96640.00
2023-02-25T08:24:23.665Z,96635.03
2023-02-25T08:27:40.778Z,96637.22
2023-02-25T08:30:57.617Z,96650.83
2023-02-25T08:34:14.375Z,96629.55
2023-02-25T08:40:46.382Z,96627.86
2023-02-25T08:44:04.427Z,96638.64
2023-02-25T08:47:21.261Z,96630.56
2023-02-25T08:50:39.081Z,96638.78
2023-02-25T08:54:01.298Z,96641.84
2023-02-25T08:57:19.358Z,96657.61
2023-02-25T09:00:37.072Z,96656.98
2023-02-25T09:03:59.292Z,96650.93
2023-02-25T09:10:44.612Z,96651.63
2023-02-25T09:13:49.758Z,96655.46
2023-02-25T09:17:06.708Z,96656.21
2023-02-25T09:20:25.097Z,96656.55
2023-02-25T09:23:41.528Z,96657.95
2023-02-25T09:26:58.024Z,96664.11
2023-02-25T09:30:16.967Z,96656.23
2023-02-25T09:33:34.139Z,96651.50
2023-02-25T09:36:52.525Z,96657.44
2023-02-25T09:40:11.120Z,96651.72
2023-02-25T09:43:39.183Z,96665.45
2023-02-25T09:47:05.174Z,96675.61
2023-02-25T09:50:26.794Z,96681.48
2023-02-25T09:53:48.461Z,96674.66
2023-02-25T09:57:07.306Z,96676.05
2023-02-25T10:00:29.427Z,96673.75
2023-02-25T10:04:01.008Z,96670.27
2023-02-25T10:07:24.283Z,96675.98
2023-02-25T10:10:50.120Z,96674.20
2023-02-25T10:14:12.187Z,96676.30
2023-02-25T10:17:37.116Z,96664.78
2023-02-25T10:24:25.907Z,96662.52
2023-02-25T10:27:47.493Z,96658.27
2023-02-25T10:31:08.691Z,96650.71
2023-02-25T10:34:33.948Z,96648.80
2023-02-25T10:41:12.116Z,96652.83
2023-02-25T10:44:31.750Z,96644.50
2023-02-25T10:48:04.069Z,96653.34
2023-02-25T10:51:23.901Z,96642.11
2023-02-25T10:54:44.092Z,96652.69
2023-02-25T10:58:05.279Z,96650.38
2023-02-25T11:01:26.136Z,96644.25
2023-02-25T11:04:46.937Z,96621.16
2023-02-25T11:08:08.547Z,96642.36
2023-02-25T11:11:32.869Z,96645.23
2023-02-25T11:14:49.322Z,96642.81
2023-02-25T11:18:11.286Z,96645.44
2023-02-25T11:21:41.019Z,96663.89
2023-02-25T11:25:08.729Z,96642.63
2023-02-25T11:28:34.741Z,96658.53
2023-02-25T11:31:57.496Z,96665.84
2023-02-25T11:36:11.653Z,96662.78
2023-02-25T11:39:32.253Z,96659.36
2023-02-25T11:42:48.352Z,96666.64
2023-02-25T11:46:09.175Z,96678.86
2023-02-25T11:49:30.129Z,96677.39
2023-02-25T11:52:52.724Z,96670.31
2023-02-25T11:56:14.876Z,96687.74
2023-02-25T11:59:40.469Z,96682.88
2023-02-25T12:03:14.683Z,96702.95
2023-02-25T12:06:47.580Z,96699.73
2023-02-25T12:10:32.584Z,96710.02
2023-02-25T12:14:26.347Z,96723.80
2023-02-25T12:18:32.364Z,96711.47
2023-02-25T12:22:15.596Z,96714.09
2023-02-25T12:25:45.421Z,96709.82
2023-02-25T12:29:15.494Z,96714.88
2023-02-25T12:32:58.191Z,96700.52
2023-02-25T12:40:08.870Z,96706.61
2023-02-25T12:43:35.963Z,96725.81
2023-02-25T12:47:07.874Z,96740.38
2023-02-25T12:56:55.212Z,96735.14
2023-02-25T13:00:32.038Z,96729.25
2023-02-25T13:04:14.205Z,96737.70
2023-02-25T13:11:09.621Z,96746.58
2023-02-25T13:14:41.310Z,96748.55
2023-02-25T13:18:14.540Z,96752.36
2023-02-25T13:24:58.291Z,96765.69
2023-02-25T13:28:41.301Z,96764.89
2023-02-25T13:32:03.704Z,96767.24
2023-02-25T13:35:36.724Z,96770.03
2023-02-25T13:42:29.387Z,96782.42
2023-02-25T13:46:25.246Z,96781.47
2023-02-25T13:50:11.552Z,96786.88
2023-02-25T13:54:02.283Z,96783.66
2023-02-25T13:57:32.930Z,96789.77
2023-02-25T14:01:36.726Z,96802.03
2023-02-25T14:05:28.351Z,96802.10
2023-02-25T14:12:12.796Z,96810.73
2023-02-25T14:15:42.770Z,96808.58
2023-02-25T14:19:21.153Z,96812.84
2023-02-25T14:26:06.436Z,96834.08
2023-02-25T14:29:31.322Z,96851.98
2023-02-25T14:33:10.598Z,96846.41
2023-02-25T14:36:54.597Z,96846.56
2023-02-25T14:40:30.834Z,96840.44
2023-02-25T14:43:48.544Z,96844.07
2023-02-25T14:47:10.636Z,96843.93
2023-02-25T14:50:32.129Z,96847.83
2023-02-25T14:57:43.027Z,96860.11
2023-02-25T15:01:40.086Z,96872.23
2023-02-25T15:05:32.965Z,96879.55
2023-02-25T15:09:45.171Z,96891.98
2023-02-25T15:13:24.850Z,96886.29
2023-02-25T15:17:07.189Z,96903.66
2023-02-25T15:20:40.989Z,96902.58
2023-02-25T15:24:01.797Z,96905.09
2023-02-25T15:28:01.749Z,96906.58
2023-02-25T15:31:44.657Z,96912.52
2023-02-25T15:35:16.910Z,96915.63
2023-02-25T15:38:52.482Z,96917.71
2023-02-25T15:42:17.160Z,96919.91
2023-02-25T15:45:47.180Z,96922.11
2023-02-25T15:49:28.365Z,96917.47
2023-02-25T15:53:06.574Z,96936.47
2023-02-25T15:56:54.453Z,96934.03
2023-02-25T16:00:38.315Z,96941.53
2023-02-25T16:03:57.484Z,96940.73
2023-02-25T16:10:37.050Z,96951.20
2023-02-25T16:13:56.533Z,96965.95
2023-02-25T16:17:19.481Z,96974.33
2023-02-25T16:20:43.601Z,96987.71
2023-02-25T16:27:21.240Z,96990.86
2023-02-25T16:30:42.563Z,97001.45
2023-02-25T16:34:05.213Z,97023.88
2023-02-25T16:37:25.933Z,97019.80
2023-02-25T16:40:45.854Z,97026.74
2023-02-25T16:44:03.453Z,97039.75
2023-02-25T16:47:31.879Z,97029.27
2023-02-25T16:50:52.226Z,97042.22
2023-02-25T16:54:14.165Z,97047.09
2023-02-25T16:57:32.368Z,97050.60
2023-02-25T17:01:03.328Z,97063.34
2023-02-25T17:04:30.175Z,97072.28
2023-02-25T17:11:06.956Z,97093.65
2023-02-25T17:14:26.230Z,97097.72
2023-02-25T17:17:45.836Z,97101.94
2023-02-25T17:21:07.570Z,97092.11
2023-02-25T17:27:40.068Z,97106.28
2023-02-25T17:31:06.133Z,97113.96
2023-02-25T17:34:28.603Z,97117.11
2023-02-25T17:41:01.210Z,97107.84
2023-02-25T17:44:22.330Z,97110.18
2023-02-25T17:47:41.711Z,97109.38
2023-02-25T17:51:06.690Z,97125.80
2023-02-25T17:57:40.500Z,97140.34
2023-02-25T18:01:09.050Z,97144.60
2023-02-25T18:04:36.063Z,97147.66
2023-02-25T18:08:23.321Z,97152.21
2023-02-25T18:11:43.090Z,97147.22
2023-02-25T18:15:03.946Z,97154.90
2023-02-25T18:18:30.428Z,97160.72
2023-02-25T18:22:31.705Z,97159.78
2023-02-25T18:25:52.752Z,97163.56
2023-02-25T18:29:14.138Z,97161.41
2023-02-25T18:32:30.431Z,97163.48
2023-02-25T18:35:50.879Z,97171.71
2023-02-25T18:39:11.046Z,97172.19
2023-02-25T18:42:27.817Z,97177.06
2023-02-25T18:45:47.540Z,97179.21
2023-02-25T18:49:07.416Z,97172.98
2023-02-25T18:55:41.577Z,97170.44
2023-02-25T18:58:58.879Z,97184.30
2023-02-25T19:02:27.940Z,97179.35
2023-02-25T19:05:44.622Z,97186.92
2023-02-25T19:12:19.767Z,97189.54
2023-02-25T19:15:36.618Z,97198.59
2023-02-25T19:18:53.284Z,97195.76
2023-02-25T19:22:09.729Z,97208.38
2023-02-25T19:25:31.410Z,97211.98
2023-02-25T19:28:50.370Z,97213.32
2023-02-25T19:32:06.727Z,97216.92
2023-02-25T19:35:25.370Z,97213.22
2023-02-25T19:38:44.644Z,97222.36
2023-02-25T19:42:01.688Z,97220.05
2023-02-25T19:45:23.290Z,97224.17
2023-02-25T19:48:40.021Z,97220.72
2023-02-25T19:51:57.414Z,97226.16
2023-02-25T19:58:30.252Z,97240.06
2023-02-25T20:01:48.026Z,97242.33
2023-02-25T20:05:04.392Z,97246.59
2023-02-25T20:08:21.499Z,97257.73
2023-02-25T20:11:38.410Z,97256.41
2023-02-25T20:14:54.666Z,97256.41
2023-02-25T20:18:11.557Z,97257.58
2023-02-25T20:21:28.965Z,97263.15
2023-02-25T20:24:49.675Z,97255.14
2023-02-25T20:28:06.906Z,97270.41
2023-02-25T20:31:26.585Z,97260.25
2023-02-25T20:34:44.461Z,97267.78
2023-02-25T20:41:18.837Z,97272.71
2023-02-25T20:44:36.897Z,97278.74
2023-02-25T20:47:53.880Z,97274.98
2023-02-25T20:51:11.203Z,97278.27
2023-02-25T20:57:43.645Z,97288.59
2023-02-25T21:01:00.095Z,97286.46
2023-02-25T21:04:17.503Z,97298.73
2023-02-25T21:10:50.157Z,97308.89
2023-02-25T21:14:08.174Z,97318.05
2023-02-25T21:17:25.789Z,97326.03
2023-02-25T21:20:45.419Z,97334.21
2023-02-25T21:27:17.721Z,97336.00
2023-02-25T21:30:34.299Z,97336.50
2023-02-25T21:33:54.044Z,97339.60
2023-02-25T21:37:12.515Z,97347.47
2023-02-25T21:40:29.209Z,97349.24
2023-02-25T21:43:46.344Z,97345.34
2023-02-25T21:47:03.155Z,97344.68
2023-02-25T21:50:20.806Z,97345.98
2023-02-25T21:53:38.222Z,97352.70
2023-02-25T21:56:54.451Z,97351.86
2023-02-25T22:00:12.055Z,97346.16
2023-02-25T22:03:27.470Z,97348.11
2023-02-25T22:06:44.089Z,97341.39
2023-02-25T22:10:01.390Z,97354.13
2023-02-25T22:13:18.377Z,97365.76
2023-02-25T22:16:35.066Z,97374.23
2023-02-25T22:19:51.609Z,97379.47
2023-02-25T22:23:07.942Z,97390.59
2023-02-25T22:26:27.779Z,97380.61
2023-02-25T22:29:44.255Z,97390.09
2023-02-25T22:33:00.381Z,97394.69
2023-02-25T22:36:19.178Z,97389.93
2023-02-25T22:39:35.794Z,97396.00
2023-02-25T22:42:52.253Z,97395.16
2023-02-25T22:46:19.382Z,97398.77
2023-02-25T22:49:35.704Z,97405.48
2023-02-25T22:53:56.332Z,97409.57
2023-02-25T22:57:12.654Z,97407.06
2023-02-25T23:00:29.182Z,97424.22
2023-02-25T23:03:46.035Z,97432.44
2023-02-25T23:07:04.755Z,97432.11
2023-02-25T23:10:22.083Z,97443.70
2023-02-25T23:13:38.336Z,97441.09
2023-02-25T23:16:55.118Z,97437.67
2023-02-25T23:20:12.524Z,97447.33
2023-02-25T23:23:30.669Z,97453.36
2023-02-25T23:26:51.213Z,97466.05
2023-02-25T23:30:07.629Z,97454.33
2023-02-25T23:33:23.925Z,97453.36
2023-02-25T23:36:40.499Z,97469.02
2023-02-25T23:43:12.669Z,97491.27
2023-02-25T23:46:30.069Z,97486.17
2023-02-25T23:49:46.344Z,97488.27
2023-02-25T23:57:30.519Z,97492.32
